createdAt,value
2017-12-26T00:02:12.101Z,21.00
2017-12-26T00:04:39.666Z,9.83
2017-12-26T00:07:07.186Z,10.15
2017-12-26T00:09:35.489Z,9.57
2017-12-26T00:12:03.007Z,13.17
2017-12-26T00:14:31.319Z,11.63
2017-12-26T00:16:58.854Z,12.05
2017-12-26T00:19:27.189Z,13.13
2017-12-26T00:21:54.738Z,11.25
2017-12-26T00:24:22.301Z,13.23
2017-12-26T00:26:49.870Z,12.03
2017-12-26T00:29:17.460Z,12.03
2017-12-26T00:31:45.210Z,12.30
2017-12-26T00:34:12.773Z,12.13
2017-12-26T00:36:40.328Z,13.20
2017-12-26T00:39:07.861Z,11.37
2017-12-26T00:41:35.420Z,12.13
2017-12-26T00:44:02.970Z,13.30
2017-12-26T00:46:30.566Z,11.30
2017-12-26T00:48:58.112Z,11.50
2017-12-26T00:51:25.670Z,12.87
2017-12-26T00:53:53.252Z,11.70
2017-12-26T00:56:20.912Z,12.40
2017-12-26T00:58:48.428Z,12.00
2017-12-26T01:01:16.742Z,12.40
2017-12-26T01:03:44.556Z,15.35
2017-12-26T01:06:12.131Z,14.10
2017-12-26T01:08:40.469Z,13.00
2017-12-26T01:11:08.042Z,12.32
2017-12-26T01:13:35.582Z,14.77
2017-12-26T01:16:03.236Z,14.40
2017-12-26T01:18:30.766Z,14.90
2017-12-26T01:20:58.367Z,14.17
2017-12-26T01:23:25.904Z,14.23
2017-12-26T01:25:53.472Z,13.73
2017-12-26T01:28:21.009Z,15.70
2017-12-26T01:30:48.599Z,15.10
2017-12-26T01:33:16.156Z,15.83
2017-12-26T01:35:43.700Z,16.37
2017-12-26T01:38:11.278Z,14.18
2017-12-26T01:40:38.844Z,15.88
2017-12-26T01:43:06.384Z,14.20
2017-12-26T01:45:33.976Z,13.37
2017-12-26T01:48:01.521Z,13.17
2017-12-26T01:50:29.082Z,12.70
2017-12-26T01:52:56.649Z,12.48
2017-12-26T01:55:24.177Z,15.88
2017-12-26T01:57:51.728Z,16.98
2017-12-26T02:00:20.066Z,14.50
2017-12-26T02:02:47.644Z,12.40
2017-12-26T02:05:15.188Z,14.85
2017-12-26T02:07:42.767Z,14.27
2017-12-26T02:10:10.303Z,13.93
2017-12-26T02:12:37.887Z,13.63
2017-12-26T02:15:07.770Z,22.43
2017-12-26T02:17:35.353Z,14.10
2017-12-26T02:20:02.902Z,16.87
2017-12-26T02:22:30.451Z,14.23
2017-12-26T02:24:58.012Z,15.50
2017-12-26T02:27:25.564Z,15.20
2017-12-26T02:29:53.242Z,12.63
2017-12-26T02:32:20.809Z,11.57
2017-12-26T02:34:48.455Z,13.32
2017-12-26T02:37:16.003Z,13.05
2017-12-26T02:39:43.540Z,16.70
2017-12-26T02:42:11.120Z,13.52
2017-12-26T02:44:38.684Z,13.57
2017-12-26T02:47:06.246Z,14.80
2017-12-26T02:49:33.833Z,12.77
2017-12-26T02:52:01.394Z,13.20
2017-12-26T02:54:29.218Z,13.60
2017-12-26T02:56:56.784Z,13.60
2017-12-26T02:59:24.359Z,15.82
2017-12-26T03:01:52.026Z,12.13
2017-12-26T03:04:19.564Z,14.38
2017-12-26T03:06:47.092Z,13.17
2017-12-26T03:09:14.645Z,12.50
2017-12-26T03:11:42.162Z,11.65
2017-12-26T03:14:09.838Z,11.70
2017-12-26T03:16:37.356Z,13.62
2017-12-26T03:19:05.679Z,15.07
2017-12-26T03:21:33.224Z,12.27
2017-12-26T03:24:00.792Z,10.32
2017-12-26T03:26:28.336Z,13.10
2017-12-26T03:28:55.908Z,12.65
2017-12-26T03:31:23.436Z,14.83
2017-12-26T03:33:51.740Z,12.15
2017-12-26T03:36:19.273Z,11.95
2017-12-26T03:38:47.561Z,12.93
2017-12-26T03:41:15.964Z,10.73
2017-12-26T03:43:43.482Z,14.70
2017-12-26T03:46:11.176Z,12.50
2017-12-26T03:48:38.741Z,12.47
2017-12-26T03:51:06.265Z,10.93
2017-12-26T03:53:33.861Z,10.90
2017-12-26T03:56:01.394Z,16.03
2017-12-26T03:58:29.684Z,13.88
2017-12-26T04:00:57.968Z,15.07
2017-12-26T04:03:25.536Z,12.00
2017-12-26T04:05:53.054Z,14.80
2017-12-26T04:08:20.565Z,12.53
2017-12-26T04:10:48.132Z,16.73
2017-12-26T04:13:15.679Z,15.20
2017-12-26T04:15:43.253Z,14.17
2017-12-26T04:18:10.801Z,11.63
2017-12-26T04:20:38.323Z,10.20
2017-12-26T04:23:06.637Z,12.10
2017-12-26T04:25:34.150Z,13.80
2017-12-26T04:28:01.673Z,11.37
2017-12-26T04:30:29.216Z,10.90
2017-12-26T04:32:58.006Z,10.83
2017-12-26T04:35:25.524Z,14.40
2017-12-26T04:37:53.846Z,10.63
2017-12-26T04:40:21.385Z,11.57
2017-12-26T04:42:49.683Z,14.00
2017-12-26T04:45:17.197Z,13.33
2017-12-26T04:47:44.729Z,13.03
2017-12-26T04:50:12.243Z,17.87
2017-12-26T04:52:39.785Z,15.38
2017-12-26T04:55:07.294Z,11.57
2017-12-26T04:57:34.824Z,10.73
2017-12-26T05:00:03.172Z,10.10
2017-12-26T05:02:30.702Z,12.27
2017-12-26T05:04:58.239Z,12.57
2017-12-26T05:07:25.817Z,12.47
2017-12-26T05:09:53.335Z,13.53
2017-12-26T05:12:21.752Z,10.90
2017-12-26T05:14:49.318Z,16.57
2017-12-26T05:17:16.849Z,11.27
2017-12-26T05:19:44.429Z,10.95
2017-12-26T05:22:11.993Z,15.17
2017-12-26T05:24:39.512Z,12.67
2017-12-26T05:27:07.105Z,13.00
2017-12-26T05:29:34.634Z,14.40
2017-12-26T05:32:08.065Z,12.73
2017-12-26T05:34:35.631Z,16.63
2017-12-26T05:37:03.241Z,10.47
2017-12-26T05:39:30.778Z,15.10
2017-12-26T05:41:58.305Z,10.15
2017-12-26T05:44:25.872Z,12.60
2017-12-26T05:46:53.382Z,11.43
2017-12-26T05:49:20.914Z,15.75
2017-12-26T05:51:48.448Z,11.20
2017-12-26T05:54:16.025Z,12.17
2017-12-26T05:56:43.572Z,14.60
2017-12-26T05:59:11.098Z,13.03
2017-12-26T06:01:39.385Z,11.48
2017-12-26T06:04:06.937Z,15.33
2017-12-26T06:06:34.472Z,13.33
2017-12-26T06:09:02.091Z,14.43
2017-12-26T06:11:29.604Z,13.67
2017-12-26T06:13:57.151Z,12.20
2017-12-26T06:16:24.666Z,16.57
2017-12-26T06:18:52.232Z,12.50
2017-12-26T06:21:19.803Z,14.43
2017-12-26T06:23:47.339Z,18.97
2017-12-26T06:26:14.861Z,12.13
2017-12-26T06:28:42.505Z,20.45
2017-12-26T06:31:10.022Z,14.87
2017-12-26T06:33:38.413Z,14.80
2017-12-26T06:36:05.939Z,15.60
2017-12-26T06:38:33.460Z,15.30
2017-12-26T06:41:00.992Z,15.43
2017-12-26T06:43:28.531Z,13.80
2017-12-26T06:45:56.832Z,12.00
2017-12-26T06:48:24.404Z,16.57
2017-12-26T06:50:51.956Z,14.17
2017-12-26T06:53:19.463Z,15.13
2017-12-26T06:55:47.014Z,15.60
2017-12-26T06:58:14.546Z,16.33
2017-12-26T07:00:42.081Z,15.53
2017-12-26T07:03:10.365Z,15.17
2017-12-26T07:05:37.933Z,15.60
2017-12-26T07:08:05.465Z,13.30
2017-12-26T07:10:33.757Z,17.60
2017-12-26T07:13:02.154Z,15.27
2017-12-26T07:15:29.689Z,21.57
2017-12-26T07:17:57.995Z,16.07
2017-12-26T07:20:31.254Z,17.40
2017-12-26T07:22:58.812Z,16.03
2017-12-26T07:25:26.366Z,16.33
2017-12-26T07:27:53.902Z,14.90
2017-12-26T07:30:21.434Z,21.00
2017-12-26T07:32:48.945Z,13.07
2017-12-26T07:35:16.542Z,23.70
2017-12-26T07:37:44.923Z,20.00
2017-12-26T07:40:12.441Z,14.87
2017-12-26T07:42:39.996Z,13.40
2017-12-26T07:45:07.512Z,15.43
2017-12-26T07:47:35.149Z,16.00
2017-12-26T07:50:03.438Z,16.50
2017-12-26T07:52:31.009Z,15.90
2017-12-26T07:54:58.540Z,13.30
2017-12-26T07:57:26.849Z,17.13
2017-12-26T07:59:54.402Z,15.95
2017-12-26T08:02:21.948Z,15.50
2017-12-26T08:04:50.241Z,18.17
2017-12-26T08:07:17.809Z,15.33
2017-12-26T08:09:45.340Z,19.43
2017-12-26T08:12:13.637Z,18.97
2017-12-26T08:14:41.204Z,14.60
2017-12-26T08:17:08.738Z,14.43
2017-12-26T08:19:37.046Z,14.10
2017-12-26T08:22:04.603Z,18.30
2017-12-26T08:24:32.160Z,18.33
2017-12-26T08:26:59.686Z,16.37
2017-12-26T08:29:27.202Z,13.60
2017-12-26T08:31:55.590Z,16.33
2017-12-26T08:34:23.123Z,15.93
2017-12-26T08:36:50.633Z,17.30
2017-12-26T08:39:18.169Z,20.10
2017-12-26T08:41:45.687Z,16.80
2017-12-26T08:44:14.089Z,15.43
2017-12-26T08:46:41.619Z,18.83
2017-12-26T08:49:10.327Z,14.70
2017-12-26T08:51:37.849Z,15.80
2017-12-26T08:54:05.397Z,16.87
2017-12-26T08:56:32.914Z,14.27
2017-12-26T08:59:01.081Z,14.63
2017-12-26T09:01:28.650Z,14.07
2017-12-26T09:03:56.180Z,13.87
2017-12-26T09:06:24.498Z,14.93
2017-12-26T09:08:52.042Z,12.40
2017-12-26T09:11:19.566Z,14.73
2017-12-26T09:13:47.181Z,12.00
2017-12-26T09:16:14.721Z,14.73
2017-12-26T09:18:42.285Z,15.10
2017-12-26T09:21:09.804Z,14.93
2017-12-26T09:23:37.713Z,17.63
2017-12-26T09:26:05.284Z,16.90
2017-12-26T09:28:32.850Z,13.97
2017-12-26T09:31:00.380Z,13.40
2017-12-26T09:33:28.668Z,13.33
2017-12-26T09:35:56.204Z,14.07
2017-12-26T09:38:24.502Z,18.70
2017-12-26T09:40:52.090Z,14.90
2017-12-26T09:43:19.646Z,15.43
2017-12-26T09:45:47.201Z,15.87
2017-12-26T09:48:14.724Z,13.00
2017-12-26T09:50:42.540Z,11.90
2017-12-26T09:53:10.079Z,13.33
2017-12-26T09:55:37.628Z,14.90
2017-12-26T09:58:05.942Z,13.80
2017-12-26T10:00:33.498Z,11.37
2017-12-26T10:03:01.099Z,11.57
2017-12-26T10:05:28.709Z,16.50
2017-12-26T10:07:56.269Z,11.30
2017-12-26T10:10:23.802Z,13.03
2017-12-26T10:12:52.102Z,9.53
2017-12-26T10:15:19.638Z,11.00
2017-12-26T10:17:47.912Z,9.30
2017-12-26T10:20:16.226Z,12.60
2017-12-26T10:22:43.998Z,13.40
2017-12-26T10:25:11.748Z,8.23
2017-12-26T10:27:39.326Z,14.73
2017-12-26T10:30:07.049Z,7.83
2017-12-26T10:32:35.485Z,8.47
2017-12-26T10:35:04.362Z,7.80
2017-12-26T10:37:32.863Z,6.17
2017-12-26T10:40:00.381Z,5.10
2017-12-26T10:42:27.910Z,5.57
2017-12-26T10:44:55.531Z,5.80
2017-12-26T10:47:23.064Z,4.63
2017-12-26T10:49:51.479Z,3.50
2017-12-26T10:52:19.052Z,3.40
2017-12-26T10:54:46.574Z,3.70
2017-12-26T10:57:14.144Z,3.93
2017-12-26T10:59:41.717Z,4.03
2017-12-26T11:02:09.259Z,6.73
2017-12-26T11:04:36.769Z,3.67
2017-12-26T11:07:05.066Z,3.77
2017-12-26T11:09:32.718Z,4.60
2017-12-26T11:12:00.259Z,5.73
2017-12-26T11:14:27.780Z,3.30
2017-12-26T11:16:55.350Z,4.40
2017-12-26T11:19:22.867Z,6.40
2017-12-26T11:21:50.403Z,3.97
2017-12-26T11:24:18.042Z,4.23
2017-12-26T11:26:45.563Z,3.43
2017-12-26T11:29:13.964Z,4.03
2017-12-26T11:31:41.511Z,3.30
2017-12-26T11:34:09.918Z,3.60
2017-12-26T11:36:37.470Z,4.53
2017-12-26T11:39:05.032Z,2.60
2017-12-26T11:41:32.590Z,2.50
2017-12-26T11:44:00.118Z,4.90
2017-12-26T11:46:28.428Z,3.40
2017-12-26T11:48:56.190Z,2.93
2017-12-26T11:51:24.176Z,3.20
2017-12-26T11:53:52.116Z,2.70
2017-12-26T11:56:19.802Z,2.97
2017-12-26T11:58:47.344Z,3.00
2017-12-26T12:01:14.876Z,3.00
2017-12-26T12:03:42.403Z,3.00
2017-12-26T12:06:09.936Z,3.53
2017-12-26T12:08:37.481Z,3.87
2017-12-26T12:11:05.008Z,3.33
2017-12-26T12:13:32.526Z,3.13
2017-12-26T12:16:00.056Z,3.00
2017-12-26T12:18:28.341Z,4.20
2017-12-26T12:20:55.887Z,3.53
2017-12-26T12:23:24.175Z,3.00
2017-12-26T12:25:52.488Z,2.97
2017-12-26T12:28:20.118Z,3.30
2017-12-26T12:30:48.877Z,3.57
2017-12-26T12:33:16.404Z,4.30
2017-12-26T12:35:43.961Z,4.50
2017-12-26T12:38:11.509Z,4.00
2017-12-26T12:40:39.130Z,3.33
2017-12-26T12:43:06.647Z,3.10
2017-12-26T12:45:34.191Z,3.20
2017-12-26T12:48:01.704Z,3.60
2017-12-26T12:50:29.770Z,3.50
2017-12-26T12:52:58.630Z,4.90
2017-12-26T12:55:26.323Z,3.70
2017-12-26T12:57:53.900Z,3.40
2017-12-26T13:00:22.191Z,5.23
2017-12-26T13:02:50.519Z,3.00
2017-12-26T13:05:18.073Z,4.57
2017-12-26T13:07:45.612Z,3.53
2017-12-26T13:10:13.135Z,3.33
2017-12-26T13:12:40.705Z,3.50
2017-12-26T13:15:08.982Z,3.97
2017-12-26T13:17:37.583Z,3.80
2017-12-26T13:20:05.167Z,3.83
2017-12-26T13:22:32.711Z,5.40
2017-12-26T13:25:00.281Z,4.70
2017-12-26T13:27:27.832Z,6.57
2017-12-26T13:29:55.353Z,3.83
2017-12-26T13:32:22.894Z,4.47
2017-12-26T13:34:50.403Z,5.00
2017-12-26T13:37:18.694Z,4.23
2017-12-26T13:39:46.252Z,6.63
2017-12-26T13:42:13.819Z,7.30
2017-12-26T13:44:41.368Z,4.87
2017-12-26T13:47:08.932Z,9.00
2017-12-26T13:49:36.450Z,4.60
2017-12-26T13:52:03.979Z,5.10
2017-12-26T13:54:31.533Z,4.50
2017-12-26T13:56:59.107Z,3.97
2017-12-26T13:59:26.645Z,3.90
2017-12-26T14:01:54.220Z,3.93
2017-12-26T14:04:21.754Z,5.67
2017-12-26T14:06:49.328Z,3.87
2017-12-26T14:09:16.889Z,3.40
2017-12-26T14:11:44.402Z,4.03
2017-12-26T14:14:12.011Z,4.10
2017-12-26T14:16:39.533Z,9.67
2017-12-26T14:19:07.840Z,3.20
2017-12-26T14:21:35.397Z,3.47
2017-12-26T14:24:02.961Z,3.63
2017-12-26T14:26:30.498Z,4.20
2017-12-26T14:28:58.797Z,3.90
2017-12-26T14:31:26.307Z,7.07
2017-12-26T14:33:53.831Z,3.20
2017-12-26T14:36:21.340Z,3.40
2017-12-26T14:38:48.872Z,3.00
2017-12-26T14:41:16.405Z,5.23
2017-12-26T14:43:43.989Z,8.50
2017-12-26T14:46:11.478Z,3.50
2017-12-26T14:48:38.998Z,3.50
2017-12-26T14:51:06.526Z,4.57
2017-12-26T14:53:34.798Z,4.57
2017-12-26T14:56:03.087Z,7.53
2017-12-26T14:58:30.658Z,3.43
2017-12-26T15:00:58.207Z,3.97
2017-12-26T15:03:25.782Z,4.83
2017-12-26T15:05:53.349Z,3.50
2017-12-26T15:08:20.849Z,3.60
2017-12-26T15:10:48.397Z,7.70
2017-12-26T15:13:15.927Z,3.50
2017-12-26T15:15:43.482Z,3.43
2017-12-26T15:18:11.048Z,5.60
2017-12-26T15:20:39.319Z,4.40
2017-12-26T15:23:06.837Z,4.13
2017-12-26T15:25:34.439Z,4.20
2017-12-26T15:28:02.525Z,4.17
2017-12-26T15:30:30.078Z,3.93
2017-12-26T15:32:57.577Z,4.53
2017-12-26T15:35:25.103Z,4.60
2017-12-26T15:37:52.658Z,3.53
2017-12-26T15:40:20.161Z,9.77
2017-12-26T15:42:47.760Z,6.87
2017-12-26T15:45:15.824Z,4.70
2017-12-26T15:47:44.119Z,3.30
2017-12-26T15:50:11.680Z,10.27
2017-12-26T15:52:39.214Z,3.33
2017-12-26T15:55:07.484Z,9.43
2017-12-26T15:57:35.004Z,7.17
2017-12-26T16:00:02.524Z,3.50
2017-12-26T16:02:31.006Z,3.47
2017-12-26T16:04:59.400Z,5.83
2017-12-26T16:07:26.934Z,3.70
2017-12-26T16:09:55.251Z,6.17
2017-12-26T16:12:22.804Z,3.70
2017-12-26T16:14:50.367Z,9.83
2017-12-26T16:17:17.927Z,4.37
2017-12-26T16:19:45.436Z,4.00
2017-12-26T16:22:12.947Z,4.00
2017-12-26T16:24:40.477Z,5.67
2017-12-26T16:27:08.785Z,4.17
2017-12-26T16:29:36.337Z,3.70
2017-12-26T16:32:03.844Z,4.30
2017-12-26T16:34:31.375Z,6.10
2017-12-26T16:36:58.894Z,4.30
2017-12-26T16:39:27.348Z,3.60
2017-12-26T16:41:54.896Z,3.60
2017-12-26T16:44:22.525Z,3.67
2017-12-26T16:46:50.086Z,3.50
2017-12-26T16:49:17.649Z,4.60
2017-12-26T16:51:45.229Z,6.63
2017-12-26T16:54:12.778Z,9.70
2017-12-26T16:56:40.292Z,5.50
2017-12-26T16:59:08.619Z,4.33
2017-12-26T17:01:36.173Z,5.55
2017-12-26T17:04:03.711Z,5.17
2017-12-26T17:06:31.287Z,4.57
2017-12-26T17:08:58.854Z,4.80
2017-12-26T17:11:26.378Z,3.80
2017-12-26T17:13:54.689Z,6.67
2017-12-26T17:16:22.199Z,5.53
2017-12-26T17:18:49.803Z,5.70
2017-12-26T17:21:17.381Z,8.87
2017-12-26T17:23:44.897Z,4.40
2017-12-26T17:26:13.203Z,3.60
2017-12-26T17:28:40.777Z,4.70
2017-12-26T17:31:08.307Z,7.07
2017-12-26T17:33:36.615Z,6.33
2017-12-26T17:36:04.184Z,4.93
2017-12-26T17:38:31.756Z,4.20
2017-12-26T17:40:59.323Z,6.10
2017-12-26T17:43:26.893Z,3.90
2017-12-26T17:45:54.436Z,5.53
2017-12-26T17:48:22.067Z,3.13
2017-12-26T17:50:49.657Z,3.50
2017-12-26T17:53:17.260Z,4.10
2017-12-26T17:55:46.709Z,6.47
2017-12-26T17:58:14.564Z,8.77
2017-12-26T18:00:42.246Z,8.67
2017-12-26T18:03:10.593Z,4.47
2017-12-26T18:05:38.921Z,3.40
2017-12-26T18:08:06.712Z,5.50
2017-12-26T18:10:34.234Z,4.90
2017-12-26T18:13:01.892Z,7.27
2017-12-26T18:15:29.439Z,4.83
2017-12-26T18:17:56.973Z,4.80
2017-12-26T18:20:25.289Z,3.67
2017-12-26T18:22:52.821Z,5.67
2017-12-26T18:25:21.122Z,5.10
2017-12-26T18:27:49.003Z,3.97
2017-12-26T18:30:16.666Z,4.20
2017-12-26T18:32:44.418Z,4.40
2017-12-26T18:35:12.086Z,6.50
2017-12-26T18:37:41.811Z,4.63
2017-12-26T18:40:12.965Z,3.13
2017-12-26T18:42:41.312Z,5.13
2017-12-26T18:45:08.834Z,6.17
2017-12-26T18:47:36.443Z,7.37
2017-12-26T18:50:04.007Z,8.73
2017-12-26T18:52:32.590Z,4.90
2017-12-26T18:55:00.260Z,7.30
2017-12-26T18:57:27.817Z,8.30
2017-12-26T18:59:55.460Z,10.03
2017-12-26T19:02:23.177Z,3.40
2017-12-26T19:04:51.584Z,7.13
2017-12-26T19:07:20.002Z,5.30
2017-12-26T19:09:48.801Z,4.95
2017-12-26T19:12:16.418Z,7.17
2017-12-26T19:14:44.729Z,8.30
2017-12-26T19:17:12.247Z,4.30
2017-12-26T19:19:39.947Z,6.73
2017-12-26T19:22:07.496Z,4.97
2017-12-26T19:24:35.206Z,4.82
2017-12-26T19:27:02.933Z,8.73
2017-12-26T19:29:30.648Z,3.20
2017-12-26T19:31:58.302Z,7.83
2017-12-26T19:34:25.948Z,6.63
2017-12-26T19:36:53.602Z,7.13
2017-12-26T19:39:21.501Z,4.70
2017-12-26T19:41:49.046Z,2.83
2017-12-26T19:44:16.578Z,3.73
2017-12-26T19:46:44.139Z,5.93
2017-12-26T19:49:11.663Z,7.33
2017-12-26T19:51:39.952Z,4.37
2017-12-26T19:54:08.526Z,4.47
2017-12-26T19:56:36.826Z,7.43
2017-12-26T19:59:04.723Z,3.97
2017-12-26T20:01:32.384Z,11.52
2017-12-26T20:03:59.926Z,3.60
2017-12-26T20:06:27.936Z,6.13
2017-12-26T20:08:55.879Z,4.03
2017-12-26T20:11:23.648Z,3.60
2017-12-26T20:13:51.197Z,6.50
2017-12-26T20:16:18.756Z,2.90
2017-12-26T20:18:46.823Z,3.80
2017-12-26T20:21:14.498Z,3.83
2017-12-26T20:23:42.049Z,9.73
2017-12-26T20:26:09.626Z,3.70
2017-12-26T20:28:44.029Z,5.77
2017-12-26T20:31:11.619Z,4.83
2017-12-26T20:33:39.310Z,2.80
2017-12-26T20:36:07.239Z,3.97
2017-12-26T20:38:35.606Z,4.05
2017-12-26T20:41:04.817Z,4.70
2017-12-26T20:43:32.474Z,3.37
2017-12-26T20:46:00.012Z,2.93
2017-12-26T20:48:27.563Z,6.47
2017-12-26T20:50:55.860Z,3.93
2017-12-26T20:53:23.407Z,3.28
2017-12-26T20:55:51.820Z,3.03
2017-12-26T20:58:19.366Z,3.57
2017-12-26T21:00:46.923Z,3.50
2017-12-26T21:03:14.588Z,7.13
2017-12-26T21:05:42.218Z,4.57
2017-12-26T21:08:10.034Z,3.23
2017-12-26T21:10:38.006Z,2.90
2017-12-26T21:13:05.873Z,4.23
2017-12-26T21:15:34.858Z,3.77
2017-12-26T21:18:04.230Z,5.95
2017-12-26T21:20:32.185Z,9.43
2017-12-26T21:22:59.760Z,5.20
2017-12-26T21:25:27.726Z,7.87
2017-12-26T21:27:56.261Z,3.23
2017-12-26T21:30:23.922Z,4.73
2017-12-26T21:32:51.889Z,3.80
2017-12-26T21:35:20.926Z,4.33
2017-12-26T21:37:49.570Z,3.42
2017-12-26T21:40:17.641Z,3.10
2017-12-26T21:42:45.227Z,3.40
2017-12-26T21:45:13.217Z,4.37
2017-12-26T21:47:41.114Z,5.83
2017-12-26T21:50:09.707Z,7.83
2017-12-26T21:52:37.493Z,5.53
2017-12-26T21:55:05.462Z,3.10
2017-12-26T21:57:34.151Z,3.00
2017-12-26T22:00:01.728Z,5.90
2017-12-26T22:02:29.528Z,4.03
2017-12-26T22:04:57.334Z,4.13
2017-12-26T22:07:25.096Z,2.67
2017-12-26T22:09:52.769Z,3.40
2017-12-26T22:12:20.285Z,7.43
2017-12-26T22:14:48.275Z,4.37
2017-12-26T22:17:16.377Z,7.25
2017-12-26T22:19:44.842Z,3.42
2017-12-26T22:22:12.393Z,4.03
2017-12-26T22:24:39.989Z,2.65
2017-12-26T22:27:08.054Z,6.40
2017-12-26T22:29:37.458Z,3.50
2017-12-26T22:32:06.352Z,2.60
2017-12-26T22:34:34.738Z,5.90
2017-12-26T22:37:02.287Z,4.00
2017-12-26T22:39:30.081Z,2.67
2017-12-26T22:41:59.257Z,3.80
2017-12-26T22:44:26.925Z,3.12
2017-12-26T22:46:55.420Z,3.20
2017-12-26T22:49:23.070Z,7.28
2017-12-26T22:51:50.726Z,3.00
2017-12-26T22:54:18.348Z,5.00
2017-12-26T22:56:46.773Z,3.00
2017-12-26T22:59:14.344Z,3.70
2017-12-26T23:01:41.997Z,2.47
2017-12-26T23:04:09.508Z,3.40
2017-12-26T23:06:37.828Z,7.10
2017-12-26T23:09:05.353Z,7.18
2017-12-26T23:11:33.643Z,5.00
2017-12-26T23:14:07.013Z,6.78
2017-12-26T23:16:40.215Z,4.80
2017-12-26T23:19:08.524Z,4.43
2017-12-26T23:21:36.088Z,5.07
2017-12-26T23:24:09.426Z,4.70
2017-12-26T23:26:42.606Z,3.10
2017-12-26T23:29:15.843Z,5.60
2017-12-26T23:31:49.858Z,4.43
2017-12-26T23:34:23.918Z,2.85
2017-12-26T23:36:57.151Z,4.43
2017-12-26T23:39:31.065Z,4.35
2017-12-26T23:42:05.090Z,3.00
2017-12-26T23:44:39.082Z,3.63
2017-12-26T23:47:12.348Z,3.28
2017-12-26T23:49:45.494Z,4.72
2017-12-26T23:52:18.657Z,6.63
2017-12-26T23:54:51.949Z,4.43
2017-12-26T23:57:25.169Z,3.17
